Bookmark and Share
Track history (hours):
 

Dobrota

Last reported at 2014-Apr-19 21:27 UTC. Time now 2014-Apr-20 21:10 UTC.
Position N 46°35' E 031°31'.

Length 185 m; draft 5.5 m.

Type: Cargo ship. MMSI: 376409000.

NotesDate/timePositionNaut miles runAvg speedWind from/ knotsBaromVisibWave heightAir tempDewpointWater temp
2014-Apr-19 21:27N 46°35' E 031°31'10 9.2
2014-Apr-19 20:19N 46°36' E 031°46'7 8.8
2014-Apr-19 19:34N 46°39' E 031°55'8 8.3
2014-Apr-19 18:34N 46°47' E 031°53'6 5.8
2014-Apr-19 17:33N 46°51' E 031°59'0 0.0
2014-Apr-19 16:32N 46°51' E 031°59'0 0.0
2014-Apr-19 15:32N 46°51' E 031°59'0 0.0
2014-Apr-19 14:32N 46°51' E 031°59'0 0.0
2014-Apr-19 13:32N 46°51' E 031°59'0 0.0
2014-Apr-19 12:32N 46°51' E 031°59'0 0.0
2014-Apr-19 11:32N 46°51' E 031°59'0 0.0
2014-Apr-19 10:32N 46°51' E 031°59'0 0.0
2014-Apr-19 09:32N 46°51' E 031°59'0 0.0
2014-Apr-19 08:32N 46°51' E 031°59'0 0.0
2014-Apr-19 07:32N 46°51' E 031°59'0 0.0
2014-Apr-19 06:32N 46°51' E 031°59'0 0.0
2014-Apr-19 05:32N 46°51' E 031°59'0 0.0
2014-Apr-19 04:32N 46°51' E 031°59'0 0.0
2014-Apr-19 03:32N 46°51' E 031°59'0 0.0
2014-Apr-19 02:32N 46°51' E 031°59'0 0.0
2014-Apr-19 01:32N 46°51' E 031°59'0 0.0
2014-Apr-19 00:32N 46°51' E 031°59'0 0.0
2014-Apr-18 23:32N 46°51' E 031°59'0 0.0
2014-Apr-18 22:32N 46°51' E 031°59'0 0.0
2014-Apr-18 21:32N 46°51' E 031°59'0 0.0
2014-Apr-18 20:32N 46°51' E 031°59'0 0.0
2014-Apr-18 19:32N 46°51' E 031°59'0 0.0
2014-Apr-18 18:32N 46°51' E 031°59'0 0.0
2014-Apr-18 17:32N 46°51' E 031°59'0 0.0
2014-Apr-18 15:29N 46°51' E 031°59'0 0.0
2014-Apr-18 14:29N 46°51' E 031°59'0 0.0
2014-Apr-18 13:32N 46°51' E 031°59'0 0.0
2014-Apr-18 12:32N 46°51' E 031°59'0 0.0
2014-Apr-18 11:32N 46°51' E 031°59'0 0.0
2014-Apr-18 10:32N 46°51' E 031°59'0 0.0
2014-Apr-18 09:26N 46°51' E 031°59'0 0.0
2014-Apr-18 08:29N 46°51' E 031°59'0 0.0
2014-Apr-18 07:32N 46°51' E 031°59'0 0.0
2014-Apr-18 06:32N 46°51' E 031°59'0 0.0
2014-Apr-18 05:32N 46°51' E 031°59'0 0.0
2014-Apr-18 04:32N 46°51' E 031°59'0 0.0
2014-Apr-18 03:32N 46°51' E 031°59'0 0.0
2014-Apr-18 02:32N 46°51' E 031°59'0 0.0
2014-Apr-18 01:32N 46°51' E 031°59'0 0.0
2014-Apr-18 00:32N 46°51' E 031°59'0 0.0
2014-Apr-17 23:32N 46°51' E 031°59'0 0.0
2014-Apr-17 22:32N 46°51' E 031°59'0 0.0
2014-Apr-17 21:32N 46°51' E 031°59'0 0.0
2014-Apr-17 20:32N 46°51' E 031°59'0 0.0
2014-Apr-17 19:32N 46°51' E 031°59'0 0.0
2014-Apr-17 18:32N 46°51' E 031°59'0 0.0
2014-Apr-17 17:32N 46°51' E 031°59'0 0.0
2014-Apr-17 16:32N 46°51' E 031°59'0 0.0
2014-Apr-17 15:32N 46°51' E 031°59'0 0.0
2014-Apr-17 14:32N 46°51' E 031°59'0 0.0
2014-Apr-17 13:32N 46°51' E 031°59'0 0.0
2014-Apr-17 12:32N 46°51' E 031°59'0 0.0
2014-Apr-17 11:32N 46°51' E 031°59'0 0.0
2014-Apr-17 10:32N 46°51' E 031°59'0 0.0
2014-Apr-17 09:32N 46°51' E 031°59'0 0.0
2014-Apr-17 08:32N 46°51' E 031°59'0 0.0
2014-Apr-17 07:32N 46°51' E 031°59'0 0.0
2014-Apr-17 06:32N 46°51' E 031°59'3 3.2
2014-Apr-17 05:33N 46°49' E 031°55'1110.5
2014-Apr-17 04:33N 46°39' E 031°55'1211.8
2014-Apr-17 03:33N 46°36' E 031°39'1111.1
2014-Apr-17 02:33N 46°35' E 031°23'1312.2
2014-Apr-17 01:31N 46°34' E 031°05'6 5.9
2014-Apr-17 00:32N 46°32' E 030°57'8 7.1
2014-Apr-16 23:25N 46°24' E 030°57'  
2014-Apr-13 14:04N 37°53' E 024°36'713.1
2014-Apr-13 13:32N 37°46' E 024°33'1513.3
2014-Apr-13 12:25N 37°33' E 024°25'1213.5
2014-Apr-13 11:32N 37°23' E 024°16'430 9.2
2014-Apr-11 12:33N 36°39' E 015°20'1313.3
2014-Apr-11 11:33N 36°26' E 015°15'185 7.4
2014-Apr-10 10:33N 33°37' E 013°44'1 0.7
2014-Apr-10 09:11N 33°37' E 013°45'  

Dump ship's entire track history

sailing weather and tide predictions

Dobrota — J8UW4 — position and weather